createdAt,value
2023-05-04T00:00:02.336Z,114.34
2023-05-04T00:15:01.650Z,114.5
2023-05-04T00:30:02.387Z,114.13
2023-05-04T00:45:01.918Z,114.66
2023-05-04T01:00:02.348Z,114.86
2023-05-04T01:15:01.407Z,114.34
2023-05-04T01:30:02.464Z,115.59
2023-05-04T01:45:02.106Z,115.75
2023-05-04T02:00:02.362Z,114.86
2023-05-04T02:15:02.202Z,116.56
2023-05-04T02:30:02.336Z,117.69
2023-05-04T02:45:01.909Z,116.8
2023-05-04T03:00:02.352Z,115.95
2023-05-04T03:15:01.584Z,117.45
2023-05-04T03:30:02.335Z,117.41
2023-05-04T03:45:03.823Z,115.91
2023-05-04T04:00:02.404Z,117.61
2023-05-04T04:15:01.284Z,117.69
2023-05-04T04:30:02.395Z,115.99
2023-05-04T04:45:01.984Z,117.13
2023-05-04T05:00:02.440Z,116.6
2023-05-04T05:15:01.489Z,116.36
2023-05-04T05:30:02.497Z,116.52
2023-05-04T05:45:02.175Z,114.34
2023-05-04T06:00:01.603Z,112.76
2023-05-04T06:15:02.000Z,109.15
2023-05-04T06:30:01.885Z,108.91
2023-05-04T06:45:01.864Z,105.8
2023-05-04T07:00:02.514Z,99.4
2023-05-04T07:15:02.767Z,99.4
2023-05-04T07:30:02.263Z,99.4
2023-05-04T07:45:02.056Z,99.4
2023-05-04T08:00:02.738Z,99.4
2023-05-04T08:15:01.665Z,99.4
2023-05-04T08:30:02.010Z,99.4
2023-05-04T08:45:02.359Z,99.4
2023-05-04T09:00:02.849Z,99.4
2023-05-04T09:15:01.511Z,51.4
2023-05-04T10:30:02.148Z,51.97
2023-05-04T10:45:02.364Z,51.97
2023-05-04T11:00:02.799Z,51.97
2023-05-04T11:15:01.692Z,51.97
2023-05-04T11:30:03.184Z,51.97
2023-05-04T11:45:01.541Z,51.97
2023-05-04T12:00:02.596Z,34.2
2023-05-04T12:15:01.671Z,40.6
2023-05-04T12:30:02.082Z,40.6
2023-05-04T12:45:02.286Z,40.6
2023-05-04T13:00:02.083Z,40.6
2023-05-04T13:15:02.625Z,40.6
2023-05-04T13:30:02.409Z,40.6
2023-05-04T13:45:01.365Z,40.6
2023-05-04T14:15:02.186Z,40.6
2023-05-04T14:30:02.716Z,40.6
2023-05-04T14:45:01.411Z,40.6
2023-05-04T15:00:01.753Z,40.6
2023-05-04T15:15:02.211Z,40.6
2023-05-04T15:30:02.627Z,40.6
2023-05-04T15:45:03.101Z,40.6
2023-05-04T16:00:02.391Z,40.6
2023-05-04T16:15:02.148Z,40.6
2023-05-04T16:30:02.427Z,40.6
2023-05-04T16:45:02.985Z,40.6
2023-05-04T17:00:02.163Z,40.6
2023-05-04T17:15:01.946Z,40.6
2023-05-04T17:30:02.400Z,40.6
2023-05-04T17:45:01.365Z,40.6
2023-05-04T18:00:01.784Z,40.6
2023-05-04T18:15:01.931Z,40.6
2023-05-04T18:30:02.446Z,40.6
2023-05-04T18:45:01.687Z,40.6
2023-05-04T19:00:02.030Z,40.6
2023-05-04T19:15:01.925Z,40.6
2023-05-04T19:30:02.307Z,40.6
2023-05-04T19:45:02.820Z,40.6
2023-05-04T20:00:02.033Z,40.6
2023-05-04T20:15:02.222Z,40.6
2023-05-04T20:30:02.294Z,40.6
2023-05-04T20:45:02.829Z,40.6
2023-05-04T21:00:01.283Z,40.6
2023-05-04T21:15:01.859Z,40.6
2023-05-04T21:30:02.326Z,40.6
2023-05-04T21:45:01.572Z,40.6
2023-05-04T22:00:01.924Z,40.6
2023-05-04T22:15:01.784Z,40.6
2023-05-04T22:30:02.333Z,40.6
2023-05-04T22:45:02.783Z,40.6
2023-05-04T23:00:01.551Z,40.6
2023-05-04T23:15:02.223Z,40.6
2023-05-04T23:30:02.293Z,40.6
2023-05-04T23:45:02.835Z,40.6
